sensor_id;sensor_type;location;lat;lon;timestamp;P1;durP1;ratioP1;P2;durP2;ratioP2
73859;SDS011;62197;51.632;13.700;2023-07-09T00:02:11;6.40;;;4.90;;
73859;SDS011;62197;51.632;13.700;2023-07-09T00:04:37;6.15;;;5.07;;
73859;SDS011;62197;51.632;13.700;2023-07-09T00:07:02;7.45;;;5.63;;
73859;SDS011;62197;51.632;13.700;2023-07-09T00:09:29;5.43;;;4.60;;
73859;SDS011;62197;51.632;13.700;2023-07-09T00:11:55;5.88;;;4.70;;
73859;SDS011;62197;51.632;13.700;2023-07-09T00:14:20;7.63;;;4.63;;
73859;SDS011;62197;51.632;13.700;2023-07-09T00:16:46;7.43;;;4.43;;
73859;SDS011;62197;51.632;13.700;2023-07-09T00:19:16;6.53;;;4.32;;
73859;SDS011;62197;51.632;13.700;2023-07-09T00:21:44;7.85;;;4.20;;
73859;SDS011;62197;51.632;13.700;2023-07-09T00:24:11;6.28;;;4.38;;
73859;SDS011;62197;51.632;13.700;2023-07-09T00:26:37;9.23;;;4.78;;
73859;SDS011;62197;51.632;13.700;2023-07-09T00:29:03;9.63;;;4.75;;
73859;SDS011;62197;51.632;13.700;2023-07-09T00:31:29;6.57;;;4.45;;
73859;SDS011;62197;51.632;13.700;2023-07-09T00:33:54;8.18;;;4.40;;
73859;SDS011;62197;51.632;13.700;2023-07-09T00:36:27;8.77;;;4.13;;
73859;SDS011;62197;51.632;13.700;2023-07-09T00:38:54;7.65;;;4.60;;
73859;SDS011;62197;51.632;13.700;2023-07-09T00:41:22;6.85;;;4.68;;
73859;SDS011;62197;51.632;13.700;2023-07-09T00:43:49;6.53;;;4.47;;
73859;SDS011;62197;51.632;13.700;2023-07-09T00:48:44;7.82;;;4.78;;
73859;SDS011;62197;51.632;13.700;2023-07-09T00:51:14;8.40;;;4.97;;
73859;SDS011;62197;51.632;13.700;2023-07-09T00:53:43;7.95;;;4.88;;
73859;SDS011;62197;51.632;13.700;2023-07-09T00:56:12;6.93;;;4.18;;
73859;SDS011;62197;51.632;13.700;2023-07-09T00:58:41;6.93;;;4.85;;
73859;SDS011;62197;51.632;13.700;2023-07-09T01:01:11;6.35;;;4.95;;
73859;SDS011;62197;51.632;13.700;2023-07-09T01:03:42;5.75;;;4.97;;
73859;SDS011;62197;51.632;13.700;2023-07-09T01:06:10;7.32;;;4.47;;
73859;SDS011;62197;51.632;13.700;2023-07-09T01:08:37;6.20;;;4.90;;
73859;SDS011;62197;51.632;13.700;2023-07-09T01:11:14;7.43;;;5.32;;
73859;SDS011;62197;51.632;13.700;2023-07-09T01:13:52;6.82;;;5.30;;
73859;SDS011;62197;51.632;13.700;2023-07-09T01:16:21;6.07;;;5.05;;
73859;SDS011;62197;51.632;13.700;2023-07-09T01:18:52;5.47;;;4.25;;
73859;SDS011;62197;51.632;13.700;2023-07-09T01:21:17;7.30;;;5.13;;
73859;SDS011;62197;51.632;13.700;2023-07-09T01:23:43;5.40;;;4.70;;
73859;SDS011;62197;51.632;13.700;2023-07-09T01:26:10;8.23;;;5.10;;
73859;SDS011;62197;51.632;13.700;2023-07-09T01:28:37;8.57;;;5.35;;
73859;SDS011;62197;51.632;13.700;2023-07-09T01:31:02;7.85;;;5.05;;
73859;SDS011;62197;51.632;13.700;2023-07-09T01:33:29;6.60;;;5.03;;
73859;SDS011;62197;51.632;13.700;2023-07-09T01:35:54;5.97;;;5.32;;
73859;SDS011;62197;51.632;13.700;2023-07-09T01:38:25;6.97;;;5.55;;
73859;SDS011;62197;51.632;13.700;2023-07-09T01:40:57;6.90;;;5.30;;
73859;SDS011;62197;51.632;13.700;2023-07-09T01:43:23;7.18;;;4.82;;
73859;SDS011;62197;51.632;13.700;2023-07-09T01:45:50;6.32;;;5.22;;
73859;SDS011;62197;51.632;13.700;2023-07-09T01:48:16;7.18;;;5.28;;
73859;SDS011;62197;51.632;13.700;2023-07-09T01:50:42;7.25;;;4.63;;
73859;SDS011;62197;51.632;13.700;2023-07-09T01:53:11;8.27;;;4.78;;
73859;SDS011;62197;51.632;13.700;2023-07-09T01:55:38;5.22;;;4.70;;
73859;SDS011;62197;51.632;13.700;2023-07-09T01:58:03;6.65;;;4.95;;
73859;SDS011;62197;51.632;13.700;2023-07-09T02:00:31;7.05;;;5.55;;
73859;SDS011;62197;51.632;13.700;2023-07-09T02:02:59;7.63;;;5.20;;
73859;SDS011;62197;51.632;13.700;2023-07-09T02:05:26;6.07;;;4.82;;
73859;SDS011;62197;51.632;13.700;2023-07-09T02:07:52;7.22;;;5.65;;
73859;SDS011;62197;51.632;13.700;2023-07-09T02:10:17;7.57;;;5.97;;
73859;SDS011;62197;51.632;13.700;2023-07-09T02:12:43;7.05;;;5.25;;
73859;SDS011;62197;51.632;13.700;2023-07-09T02:15:09;7.95;;;5.40;;
73859;SDS011;62197;51.632;13.700;2023-07-09T02:17:35;8.05;;;6.05;;
73859;SDS011;62197;51.632;13.700;2023-07-09T02:20:00;6.85;;;5.47;;
73859;SDS011;62197;51.632;13.700;2023-07-09T02:22:25;6.88;;;5.28;;
73859;SDS011;62197;51.632;13.700;2023-07-09T02:24:51;8.48;;;5.70;;
73859;SDS011;62197;51.632;13.700;2023-07-09T02:27:19;6.85;;;5.70;;
73859;SDS011;62197;51.632;13.700;2023-07-09T02:29:45;6.65;;;5.45;;
73859;SDS011;62197;51.632;13.700;2023-07-09T02:32:13;7.40;;;5.53;;
73859;SDS011;62197;51.632;13.700;2023-07-09T02:34:42;8.77;;;6.15;;
73859;SDS011;62197;51.632;13.700;2023-07-09T02:37:08;7.72;;;5.72;;
73859;SDS011;62197;51.632;13.700;2023-07-09T02:39:33;9.57;;;6.22;;
73859;SDS011;62197;51.632;13.700;2023-07-09T02:41:58;8.05;;;6.10;;
73859;SDS011;62197;51.632;13.700;2023-07-09T02:44:24;6.25;;;5.25;;
73859;SDS011;62197;51.632;13.700;2023-07-09T02:46:49;7.10;;;5.47;;
73859;SDS011;62197;51.632;13.700;2023-07-09T02:49:15;7.90;;;6.15;;
73859;SDS011;62197;51.632;13.700;2023-07-09T02:51:40;6.60;;;5.60;;
73859;SDS011;62197;51.632;13.700;2023-07-09T02:54:06;7.65;;;5.18;;
73859;SDS011;62197;51.632;13.700;2023-07-09T02:56:32;7.82;;;6.00;;
73859;SDS011;62197;51.632;13.700;2023-07-09T02:58:58;8.80;;;6.18;;
73859;SDS011;62197;51.632;13.700;2023-07-09T03:01:23;9.40;;;6.10;;
73859;SDS011;62197;51.632;13.700;2023-07-09T03:03:55;7.70;;;6.90;;
73859;SDS011;62197;51.632;13.700;2023-07-09T03:06:21;7.47;;;6.00;;
73859;SDS011;62197;51.632;13.700;2023-07-09T03:08:47;9.93;;;5.57;;
73859;SDS011;62197;51.632;13.700;2023-07-09T03:11:13;7.63;;;5.90;;
73859;SDS011;62197;51.632;13.700;2023-07-09T03:13:40;9.57;;;6.28;;
73859;SDS011;62197;51.632;13.700;2023-07-09T03:16:05;7.13;;;5.70;;
73859;SDS011;62197;51.632;13.700;2023-07-09T03:18:31;8.60;;;6.47;;
73859;SDS011;62197;51.632;13.700;2023-07-09T03:20:56;7.65;;;5.75;;
73859;SDS011;62197;51.632;13.700;2023-07-09T03:23:21;7.68;;;6.15;;
73859;SDS011;62197;51.632;13.700;2023-07-09T03:25:47;7.45;;;5.93;;
73859;SDS011;62197;51.632;13.700;2023-07-09T03:28:12;7.50;;;6.00;;
73859;SDS011;62197;51.632;13.700;2023-07-09T03:30:43;7.07;;;6.03;;
73859;SDS011;62197;51.632;13.700;2023-07-09T03:33:09;7.38;;;5.95;;
73859;SDS011;62197;51.632;13.700;2023-07-09T03:35:35;20.38;;;6.40;;
73859;SDS011;62197;51.632;13.700;2023-07-09T03:38:02;8.50;;;6.18;;
73859;SDS011;62197;51.632;13.700;2023-07-09T03:40:27;7.47;;;6.13;;
73859;SDS011;62197;51.632;13.700;2023-07-09T03:42:53;7.55;;;6.20;;
73859;SDS011;62197;51.632;13.700;2023-07-09T03:45:18;7.57;;;6.07;;
73859;SDS011;62197;51.632;13.700;2023-07-09T03:47:43;7.80;;;5.85;;
73859;SDS011;62197;51.632;13.700;2023-07-09T03:50:09;7.28;;;5.88;;
73859;SDS011;62197;51.632;13.700;2023-07-09T03:52:35;7.90;;;6.45;;
73859;SDS011;62197;51.632;13.700;2023-07-09T03:55:00;8.95;;;6.57;;
73859;SDS011;62197;51.632;13.700;2023-07-09T03:57:29;9.73;;;5.95;;
73859;SDS011;62197;51.632;13.700;2023-07-09T03:59:54;9.32;;;6.25;;
73859;SDS011;62197;51.632;13.700;2023-07-09T04:02:19;8.00;;;5.90;;
73859;SDS011;62197;51.632;13.700;2023-07-09T04:04:45;9.68;;;5.80;;
73859;SDS011;62197;51.632;13.700;2023-07-09T04:07:10;7.57;;;6.07;;
73859;SDS011;62197;51.632;13.700;2023-07-09T04:09:35;7.30;;;6.50;;
73859;SDS011;62197;51.632;13.700;2023-07-09T04:12:01;7.22;;;6.50;;
73859;SDS011;62197;51.632;13.700;2023-07-09T04:14:27;7.85;;;6.22;;
73859;SDS011;62197;51.632;13.700;2023-07-09T04:16:53;9.38;;;6.55;;
73859;SDS011;62197;51.632;13.700;2023-07-09T04:19:18;7.97;;;5.97;;
73859;SDS011;62197;51.632;13.700;2023-07-09T04:21:44;7.55;;;6.07;;
73859;SDS011;62197;51.632;13.700;2023-07-09T04:24:09;8.07;;;5.95;;
73859;SDS011;62197;51.632;13.700;2023-07-09T04:26:34;6.90;;;6.10;;
73859;SDS011;62197;51.632;13.700;2023-07-09T04:29:00;9.70;;;6.50;;
73859;SDS011;62197;51.632;13.700;2023-07-09T04:31:25;8.68;;;6.63;;
73859;SDS011;62197;51.632;13.700;2023-07-09T04:33:51;9.52;;;6.93;;
73859;SDS011;62197;51.632;13.700;2023-07-09T04:36:17;7.10;;;5.72;;
73859;SDS011;62197;51.632;13.700;2023-07-09T04:38:43;10.65;;;6.63;;
73859;SDS011;62197;51.632;13.700;2023-07-09T04:41:08;6.47;;;5.60;;
73859;SDS011;62197;51.632;13.700;2023-07-09T04:43:34;9.48;;;6.07;;
73859;SDS011;62197;51.632;13.700;2023-07-09T04:45:59;8.82;;;6.07;;
73859;SDS011;62197;51.632;13.700;2023-07-09T04:48:25;9.95;;;6.50;;
73859;SDS011;62197;51.632;13.700;2023-07-09T04:50:50;8.73;;;6.53;;
73859;SDS011;62197;51.632;13.700;2023-07-09T04:53:16;8.85;;;6.40;;
73859;SDS011;62197;51.632;13.700;2023-07-09T04:55:41;9.45;;;6.25;;
73859;SDS011;62197;51.632;13.700;2023-07-09T04:58:07;8.75;;;6.30;;
73859;SDS011;62197;51.632;13.700;2023-07-09T05:00:32;7.93;;;6.25;;
73859;SDS011;62197;51.632;13.700;2023-07-09T05:02:57;8.93;;;6.32;;
73859;SDS011;62197;51.632;13.700;2023-07-09T05:05:23;7.30;;;5.95;;
73859;SDS011;62197;51.632;13.700;2023-07-09T05:07:48;8.70;;;5.70;;
73859;SDS011;62197;51.632;13.700;2023-07-09T05:10:14;8.80;;;6.35;;
73859;SDS011;62197;51.632;13.700;2023-07-09T05:12:49;7.50;;;6.57;;
73859;SDS011;62197;51.632;13.700;2023-07-09T05:15:16;9.27;;;6.25;;
73859;SDS011;62197;51.632;13.700;2023-07-09T05:17:43;11.70;;;7.57;;
73859;SDS011;62197;51.632;13.700;2023-07-09T05:20:09;12.30;;;6.95;;
73859;SDS011;62197;51.632;13.700;2023-07-09T05:22:34;7.55;;;6.50;;
73859;SDS011;62197;51.632;13.700;2023-07-09T05:25:00;6.95;;;5.95;;
73859;SDS011;62197;51.632;13.700;2023-07-09T05:27:25;7.93;;;6.40;;
73859;SDS011;62197;51.632;13.700;2023-07-09T05:29:50;11.15;;;6.85;;
73859;SDS011;62197;51.632;13.700;2023-07-09T05:32:16;9.60;;;5.93;;
73859;SDS011;62197;51.632;13.700;2023-07-09T05:34:41;10.52;;;6.03;;
73859;SDS011;62197;51.632;13.700;2023-07-09T05:37:06;9.10;;;6.20;;
73859;SDS011;62197;51.632;13.700;2023-07-09T05:39:32;9.77;;;6.53;;
73859;SDS011;62197;51.632;13.700;2023-07-09T05:41:57;8.75;;;6.78;;
73859;SDS011;62197;51.632;13.700;2023-07-09T05:44:22;9.32;;;6.65;;
73859;SDS011;62197;51.632;13.700;2023-07-09T05:46:48;8.27;;;6.45;;
73859;SDS011;62197;51.632;13.700;2023-07-09T05:49:13;6.90;;;5.78;;
73859;SDS011;62197;51.632;13.700;2023-07-09T05:51:38;8.85;;;6.20;;
73859;SDS011;62197;51.632;13.700;2023-07-09T05:54:04;7.40;;;5.78;;
73859;SDS011;62197;51.632;13.700;2023-07-09T05:56:29;7.07;;;5.57;;
73859;SDS011;62197;51.632;13.700;2023-07-09T05:58:55;8.90;;;5.22;;
73859;SDS011;62197;51.632;13.700;2023-07-09T06:01:21;9.23;;;5.40;;
73859;SDS011;62197;51.632;13.700;2023-07-09T06:03:47;7.00;;;5.10;;
73859;SDS011;62197;51.632;13.700;2023-07-09T06:06:12;7.18;;;5.82;;
73859;SDS011;62197;51.632;13.700;2023-07-09T06:08:38;8.60;;;5.43;;
73859;SDS011;62197;51.632;13.700;2023-07-09T06:11:03;7.28;;;5.78;;
73859;SDS011;62197;51.632;13.700;2023-07-09T06:13:29;9.18;;;6.18;;
73859;SDS011;62197;51.632;13.700;2023-07-09T06:15:56;8.05;;;5.07;;
73859;SDS011;62197;51.632;13.700;2023-07-09T06:18:22;6.63;;;5.50;;
73859;SDS011;62197;51.632;13.700;2023-07-09T06:20:52;7.43;;;5.28;;
73859;SDS011;62197;51.632;13.700;2023-07-09T06:23:19;7.78;;;5.57;;
73859;SDS011;62197;51.632;13.700;2023-07-09T06:25:45;7.38;;;5.47;;
73859;SDS011;62197;51.632;13.700;2023-07-09T06:28:15;12.38;;;5.20;;
73859;SDS011;62197;51.632;13.700;2023-07-09T06:30:42;7.03;;;5.57;;
73859;SDS011;62197;51.632;13.700;2023-07-09T06:33:09;6.05;;;4.88;;
73859;SDS011;62197;51.632;13.700;2023-07-09T06:35:36;6.82;;;5.28;;
73859;SDS011;62197;51.632;13.700;2023-07-09T06:38:01;8.77;;;5.40;;
73859;SDS011;62197;51.632;13.700;2023-07-09T06:40:27;6.20;;;5.35;;
73859;SDS011;62197;51.632;13.700;2023-07-09T06:42:53;7.97;;;5.53;;
73859;SDS011;62197;51.632;13.700;2023-07-09T06:45:18;7.18;;;5.35;;
73859;SDS011;62197;51.632;13.700;2023-07-09T06:47:44;8.07;;;5.75;;
73859;SDS011;62197;51.632;13.700;2023-07-09T06:50:09;6.40;;;5.55;;
73859;SDS011;62197;51.632;13.700;2023-07-09T06:52:34;9.07;;;5.43;;
73859;SDS011;62197;51.632;13.700;2023-07-09T06:55:00;8.48;;;5.05;;
73859;SDS011;62197;51.632;13.700;2023-07-09T06:57:25;6.72;;;5.40;;
73859;SDS011;62197;51.632;13.700;2023-07-09T06:59:51;10.40;;;6.00;;
73859;SDS011;62197;51.632;13.700;2023-07-09T07:02:16;7.22;;;5.43;;
73859;SDS011;62197;51.632;13.700;2023-07-09T07:04:42;6.80;;;5.00;;
73859;SDS011;62197;51.632;13.700;2023-07-09T07:07:07;6.85;;;5.05;;
73859;SDS011;62197;51.632;13.700;2023-07-09T07:09:34;8.15;;;5.72;;
73859;SDS011;62197;51.632;13.700;2023-07-09T07:11:59;5.57;;;4.82;;
73859;SDS011;62197;51.632;13.700;2023-07-09T07:14:24;7.78;;;4.95;;
73859;SDS011;62197;51.632;13.700;2023-07-09T07:16:50;7.50;;;5.05;;
73859;SDS011;62197;51.632;13.700;2023-07-09T07:19:15;8.85;;;5.07;;
73859;SDS011;62197;51.632;13.700;2023-07-09T07:21:40;5.90;;;5.30;;
73859;SDS011;62197;51.632;13.700;2023-07-09T07:24:06;5.82;;;5.00;;
73859;SDS011;62197;51.632;13.700;2023-07-09T07:26:31;6.18;;;5.57;;
73859;SDS011;62197;51.632;13.700;2023-07-09T07:28:56;6.53;;;5.10;;
73859;SDS011;62197;51.632;13.700;2023-07-09T07:31:22;6.03;;;4.85;;
73859;SDS011;62197;51.632;13.700;2023-07-09T07:33:47;6.60;;;4.85;;
73859;SDS011;62197;51.632;13.700;2023-07-09T07:36:13;5.25;;;4.72;;
73859;SDS011;62197;51.632;13.700;2023-07-09T07:38:38;7.00;;;4.57;;
73859;SDS011;62197;51.632;13.700;2023-07-09T07:41:03;9.18;;;4.38;;
73859;SDS011;62197;51.632;13.700;2023-07-09T07:43:29;8.10;;;4.90;;
73859;SDS011;62197;51.632;13.700;2023-07-09T07:45:54;6.53;;;4.75;;
73859;SDS011;62197;51.632;13.700;2023-07-09T07:48:19;8.27;;;4.63;;
73859;SDS011;62197;51.632;13.700;2023-07-09T07:50:45;6.15;;;4.30;;
73859;SDS011;62197;51.632;13.700;2023-07-09T07:53:12;7.13;;;4.28;;
73859;SDS011;62197;51.632;13.700;2023-07-09T07:55:39;6.38;;;4.40;;
73859;SDS011;62197;51.632;13.700;2023-07-09T07:58:05;8.48;;;4.25;;
73859;SDS011;62197;51.632;13.700;2023-07-09T08:00:30;5.55;;;3.97;;
73859;SDS011;62197;51.632;13.700;2023-07-09T08:02:56;6.07;;;4.13;;
73859;SDS011;62197;51.632;13.700;2023-07-09T08:05:21;5.28;;;3.85;;
73859;SDS011;62197;51.632;13.700;2023-07-09T08:07:48;5.32;;;3.78;;
73859;SDS011;62197;51.632;13.700;2023-07-09T08:10:14;7.35;;;3.63;;
73859;SDS011;62197;51.632;13.700;2023-07-09T08:12:40;4.82;;;3.88;;
73859;SDS011;62197;51.632;13.700;2023-07-09T08:15:06;4.03;;;3.33;;
73859;SDS011;62197;51.632;13.700;2023-07-09T08:17:32;3.75;;;2.88;;
73859;SDS011;62197;51.632;13.700;2023-07-09T08:19:57;4.07;;;2.67;;
73859;SDS011;62197;51.632;13.700;2023-07-09T08:22:22;5.32;;;3.03;;
73859;SDS011;62197;51.632;13.700;2023-07-09T08:24:48;3.63;;;2.67;;
73859;SDS011;62197;51.632;13.700;2023-07-09T08:27:14;3.90;;;2.75;;
73859;SDS011;62197;51.632;13.700;2023-07-09T08:29:39;3.38;;;2.58;;
73859;SDS011;62197;51.632;13.700;2023-07-09T08:32:06;4.50;;;2.83;;
73859;SDS011;62197;51.632;13.700;2023-07-09T08:34:32;4.32;;;2.42;;
73859;SDS011;62197;51.632;13.700;2023-07-09T08:36:58;4.63;;;2.65;;
73859;SDS011;62197;51.632;13.700;2023-07-09T08:39:23;3.53;;;2.45;;
73859;SDS011;62197;51.632;13.700;2023-07-09T08:41:52;4.75;;;2.90;;
73859;SDS011;62197;51.632;13.700;2023-07-09T08:50:36;4.22;;;2.95;;
73859;SDS011;62197;51.632;13.700;2023-07-09T08:53:07;5.43;;;2.83;;
73859;SDS011;62197;51.632;13.700;2023-07-09T08:55:40;6.30;;;3.22;;
73859;SDS011;62197;51.632;13.700;2023-07-09T08:58:12;7.18;;;3.20;;
73859;SDS011;62197;51.632;13.700;2023-07-09T09:03:26;3.92;;;3.03;;
73859;SDS011;62197;51.632;13.700;2023-07-09T09:05:54;5.25;;;3.00;;
73859;SDS011;62197;51.632;13.700;2023-07-09T09:11:29;4.93;;;3.55;;
73859;SDS011;62197;51.632;13.700;2023-07-09T09:14:06;3.80;;;2.92;;
73859;SDS011;62197;51.632;13.700;2023-07-09T09:16:43;6.13;;;3.15;;
73859;SDS011;62197;51.632;13.700;2023-07-09T09:19:15;4.22;;;2.92;;
73859;SDS011;62197;51.632;13.700;2023-07-09T09:21:47;5.03;;;3.10;;
73859;SDS011;62197;51.632;13.700;2023-07-09T09:24:27;4.93;;;3.30;;
73859;SDS011;62197;51.632;13.700;2023-07-09T09:26:57;7.43;;;3.20;;
73859;SDS011;62197;51.632;13.700;2023-07-09T09:29:24;4.28;;;3.05;;
73859;SDS011;62197;51.632;13.700;2023-07-09T09:31:50;6.35;;;3.42;;
73859;SDS011;62197;51.632;13.700;2023-07-09T09:34:20;6.95;;;3.20;;
73859;SDS011;62197;51.632;13.700;2023-07-09T09:36:49;4.93;;;3.25;;
73859;SDS011;62197;51.632;13.700;2023-07-09T09:39:14;4.28;;;3.17;;
73859;SDS011;62197;51.632;13.700;2023-07-09T09:41:41;4.60;;;3.20;;
73859;SDS011;62197;51.632;13.700;2023-07-09T09:44:17;5.28;;;3.30;;
73859;SDS011;62197;51.632;13.700;2023-07-09T09:46:44;4.50;;;3.30;;
73859;SDS011;62197;51.632;13.700;2023-07-09T09:49:09;5.85;;;3.45;;
73859;SDS011;62197;51.632;13.700;2023-07-09T09:51:35;6.43;;;3.78;;
73859;SDS011;62197;51.632;13.700;2023-07-09T09:54:07;5.25;;;3.17;;
73859;SDS011;62197;51.632;13.700;2023-07-09T09:56:42;5.82;;;3.50;;
73859;SDS011;62197;51.632;13.700;2023-07-09T09:59:13;4.60;;;3.22;;
73859;SDS011;62197;51.632;13.700;2023-07-09T10:01:43;4.75;;;3.13;;
73859;SDS011;62197;51.632;13.700;2023-07-09T10:04:08;4.22;;;3.47;;
73859;SDS011;62197;51.632;13.700;2023-07-09T10:06:41;6.75;;;3.30;;
73859;SDS011;62197;51.632;13.700;2023-07-09T10:11:47;4.25;;;3.20;;
73859;SDS011;62197;51.632;13.700;2023-07-09T10:14:22;3.53;;;2.92;;
73859;SDS011;62197;51.632;13.700;2023-07-09T10:17:00;6.85;;;2.92;;
73859;SDS011;62197;51.632;13.700;2023-07-09T10:19:35;5.32;;;3.17;;
73859;SDS011;62197;51.632;13.700;2023-07-09T10:22:15;5.32;;;3.35;;
73859;SDS011;62197;51.632;13.700;2023-07-09T10:33:25;5.85;;;3.22;;
73859;SDS011;62197;51.632;13.700;2023-07-09T10:36:20;4.82;;;3.55;;
73859;SDS011;62197;51.632;13.700;2023-07-09T10:39:00;5.45;;;3.40;;
73859;SDS011;62197;51.632;13.700;2023-07-09T10:41:30;4.70;;;3.53;;
73859;SDS011;62197;51.632;13.700;2023-07-09T10:44:00;4.10;;;3.13;;
73859;SDS011;62197;51.632;13.700;2023-07-09T10:46:37;7.70;;;3.10;;
73859;SDS011;62197;51.632;13.700;2023-07-09T10:49:07;5.30;;;3.28;;
73859;SDS011;62197;51.632;13.700;2023-07-09T10:56:38;4.68;;;3.22;;
73859;SDS011;62197;51.632;13.700;2023-07-09T11:04:43;5.68;;;3.38;;
73859;SDS011;62197;51.632;13.700;2023-07-09T11:07:27;4.22;;;2.90;;
73859;SDS011;62197;51.632;13.700;2023-07-09T11:09:58;6.25;;;3.00;;
73859;SDS011;62197;51.632;13.700;2023-07-09T11:12:29;4.20;;;3.08;;
73859;SDS011;62197;51.632;13.700;2023-07-09T11:15:03;3.88;;;2.80;;
73859;SDS011;62197;51.632;13.700;2023-07-09T11:17:36;4.97;;;3.40;;
73859;SDS011;62197;51.632;13.700;2023-07-09T11:20:14;4.72;;;3.30;;
73859;SDS011;62197;51.632;13.700;2023-07-09T11:23:21;5.15;;;3.10;;
73859;SDS011;62197;51.632;13.700;2023-07-09T11:25:59;5.07;;;3.17;;
73859;SDS011;62197;51.632;13.700;2023-07-09T11:28:34;5.75;;;3.15;;
73859;SDS011;62197;51.632;13.700;2023-07-09T11:31:05;5.18;;;3.20;;
73859;SDS011;62197;51.632;13.700;2023-07-09T11:33:32;3.80;;;2.90;;
73859;SDS011;62197;51.632;13.700;2023-07-09T11:36:08;4.03;;;3.00;;
73859;SDS011;62197;51.632;13.700;2023-07-09T11:38:40;4.05;;;3.10;;
73859;SDS011;62197;51.632;13.700;2023-07-09T11:41:27;3.75;;;2.88;;
73859;SDS011;62197;51.632;13.700;2023-07-09T11:46:34;4.32;;;2.80;;
73859;SDS011;62197;51.632;13.700;2023-07-09T11:49:01;3.78;;;2.70;;
73859;SDS011;62197;51.632;13.700;2023-07-09T11:51:34;5.50;;;3.15;;
73859;SDS011;62197;51.632;13.700;2023-07-09T11:54:04;3.10;;;2.50;;
73859;SDS011;62197;51.632;13.700;2023-07-09T11:56:30;4.57;;;3.08;;
73859;SDS011;62197;51.632;13.700;2023-07-09T11:58:56;3.53;;;2.88;;
73859;SDS011;62197;51.632;13.700;2023-07-09T12:01:24;4.20;;;2.65;;
73859;SDS011;62197;51.632;13.700;2023-07-09T12:03:53;4.45;;;2.90;;
73859;SDS011;62197;51.632;13.700;2023-07-09T12:06:23;3.97;;;2.70;;
73859;SDS011;62197;51.632;13.700;2023-07-09T12:08:51;4.75;;;2.70;;
73859;SDS011;62197;51.632;13.700;2023-07-09T12:13:54;5.75;;;3.20;;
73859;SDS011;62197;51.632;13.700;2023-07-09T12:16:31;5.22;;;2.92;;
73859;SDS011;62197;51.632;13.700;2023-07-09T12:18:58;4.18;;;3.05;;
73859;SDS011;62197;51.632;13.700;2023-07-09T12:21:24;9.20;;;3.03;;
73859;SDS011;62197;51.632;13.700;2023-07-09T12:23:50;7.28;;;3.40;;
73859;SDS011;62197;51.632;13.700;2023-07-09T12:26:19;3.67;;;2.90;;
73859;SDS011;62197;51.632;13.700;2023-07-09T12:28:51;4.18;;;3.03;;
73859;SDS011;62197;51.632;13.700;2023-07-09T12:33:52;3.50;;;2.80;;
73859;SDS011;62197;51.632;13.700;2023-07-09T12:36:19;5.80;;;3.30;;
73859;SDS011;62197;51.632;13.700;2023-07-09T12:38:48;3.88;;;3.08;;
73859;SDS011;62197;51.632;13.700;2023-07-09T12:41:19;4.35;;;2.80;;
73859;SDS011;62197;51.632;13.700;2023-07-09T12:43:48;4.63;;;2.83;;
73859;SDS011;62197;51.632;13.700;2023-07-09T12:46:14;4.85;;;3.03;;
73859;SDS011;62197;51.632;13.700;2023-07-09T12:48:40;5.65;;;2.63;;
73859;SDS011;62197;51.632;13.700;2023-07-09T12:51:06;3.58;;;2.90;;
73859;SDS011;62197;51.632;13.700;2023-07-09T12:53:33;6.78;;;3.30;;
73859;SDS011;62197;51.632;13.700;2023-07-09T12:56:00;4.78;;;2.67;;
73859;SDS011;62197;51.632;13.700;2023-07-09T13:00:56;6.55;;;3.15;;
73859;SDS011;62197;51.632;13.700;2023-07-09T13:03:27;7.53;;;3.55;;
73859;SDS011;62197;51.632;13.700;2023-07-09T13:05:57;4.35;;;2.92;;
73859;SDS011;62197;51.632;13.700;2023-07-09T13:08:25;4.15;;;3.25;;
73859;SDS011;62197;51.632;13.700;2023-07-09T13:10:51;4.60;;;2.85;;
73859;SDS011;62197;51.632;13.700;2023-07-09T13:13:18;4.43;;;3.42;;
73859;SDS011;62197;51.632;13.700;2023-07-09T13:15:51;3.50;;;2.97;;
73859;SDS011;62197;51.632;13.700;2023-07-09T13:18:21;5.80;;;3.20;;
73859;SDS011;62197;51.632;13.700;2023-07-09T13:20:48;4.40;;;3.20;;
73859;SDS011;62197;51.632;13.700;2023-07-09T13:23:46;6.03;;;3.72;;
73859;SDS011;62197;51.632;13.700;2023-07-09T13:26:06;4.63;;;3.25;;
73859;SDS011;62197;51.632;13.700;2023-07-09T13:28:32;6.03;;;3.38;;
73859;SDS011;62197;51.632;13.700;2023-07-09T13:31:17;5.72;;;3.83;;
73859;SDS011;62197;51.632;13.700;2023-07-09T13:33:44;3.67;;;3.17;;
73859;SDS011;62197;51.632;13.700;2023-07-09T13:36:17;4.07;;;3.05;;
73859;SDS011;62197;51.632;13.700;2023-07-09T13:38:42;5.50;;;3.35;;
73859;SDS011;62197;51.632;13.700;2023-07-09T13:41:15;7.28;;;3.20;;
73859;SDS011;62197;51.632;13.700;2023-07-09T13:43:44;6.40;;;3.25;;
73859;SDS011;62197;51.632;13.700;2023-07-09T13:46:10;3.95;;;3.13;;
73859;SDS011;62197;51.632;13.700;2023-07-09T13:48:37;4.03;;;3.40;;
73859;SDS011;62197;51.632;13.700;2023-07-09T13:51:18;5.68;;;3.50;;
73859;SDS011;62197;51.632;13.700;2023-07-09T13:53:54;5.72;;;3.63;;
73859;SDS011;62197;51.632;13.700;2023-07-09T13:56:21;5.00;;;3.88;;
73859;SDS011;62197;51.632;13.700;2023-07-09T13:58:46;4.22;;;3.20;;
73859;SDS011;62197;51.632;13.700;2023-07-09T14:01:13;3.88;;;3.17;;
73859;SDS011;62197;51.632;13.700;2023-07-09T14:03:40;4.97;;;3.08;;
73859;SDS011;62197;51.632;13.700;2023-07-09T14:06:09;4.32;;;3.35;;
73859;SDS011;62197;51.632;13.700;2023-07-09T14:11:07;6.13;;;3.22;;
73859;SDS011;62197;51.632;13.700;2023-07-09T14:13:36;5.15;;;3.05;;
73859;SDS011;62197;51.632;13.700;2023-07-09T14:16:01;4.05;;;3.22;;
73859;SDS011;62197;51.632;13.700;2023-07-09T14:18:28;4.05;;;3.00;;
73859;SDS011;62197;51.632;13.700;2023-07-09T14:20:53;7.28;;;3.47;;
73859;SDS011;62197;51.632;13.700;2023-07-09T14:23:19;5.13;;;3.83;;
73859;SDS011;62197;51.632;13.700;2023-07-09T14:25:44;5.82;;;3.40;;
73859;SDS011;62197;51.632;13.700;2023-07-09T14:28:14;5.55;;;3.53;;
73859;SDS011;62197;51.632;13.700;2023-07-09T14:30:43;4.20;;;3.42;;
73859;SDS011;62197;51.632;13.700;2023-07-09T14:33:15;4.60;;;3.15;;
73859;SDS011;62197;51.632;13.700;2023-07-09T14:35:42;4.38;;;2.90;;
73859;SDS011;62197;51.632;13.700;2023-07-09T14:38:19;3.72;;;2.78;;
73859;SDS011;62197;51.632;13.700;2023-07-09T14:40:49;5.90;;;3.50;;
73859;SDS011;62197;51.632;13.700;2023-07-09T14:43:16;7.72;;;3.70;;
73859;SDS011;62197;51.632;13.700;2023-07-09T14:45:42;6.75;;;3.45;;
73859;SDS011;62197;51.632;13.700;2023-07-09T14:48:14;4.10;;;2.97;;
73859;SDS011;62197;51.632;13.700;2023-07-09T14:50:41;4.80;;;3.47;;
73859;SDS011;62197;51.632;13.700;2023-07-09T14:53:14;4.18;;;3.28;;
73859;SDS011;62197;51.632;13.700;2023-07-09T14:55:41;6.97;;;3.50;;
73859;SDS011;62197;51.632;13.700;2023-07-09T14:58:11;3.42;;;2.95;;
73859;SDS011;62197;51.632;13.700;2023-07-09T15:00:39;4.82;;;3.38;;
73859;SDS011;62197;51.632;13.700;2023-07-09T15:03:07;6.18;;;3.65;;
73859;SDS011;62197;51.632;13.700;2023-07-09T15:05:34;5.10;;;3.45;;
73859;SDS011;62197;51.632;13.700;2023-07-09T15:07:59;4.25;;;3.05;;
73859;SDS011;62197;51.632;13.700;2023-07-09T15:10:26;6.38;;;3.33;;
73859;SDS011;62197;51.632;13.700;2023-07-09T15:12:52;4.70;;;3.03;;
73859;SDS011;62197;51.632;13.700;2023-07-09T15:15:20;5.18;;;3.85;;
73859;SDS011;62197;51.632;13.700;2023-07-09T15:17:48;4.00;;;3.17;;
73859;SDS011;62197;51.632;13.700;2023-07-09T15:20:14;5.03;;;3.40;;
73859;SDS011;62197;51.632;13.700;2023-07-09T15:22:41;5.70;;;3.60;;
73859;SDS011;62197;51.632;13.700;2023-07-09T15:25:15;5.57;;;3.40;;
73859;SDS011;62197;51.632;13.700;2023-07-09T15:27:44;5.70;;;3.38;;